createdAt,value
2023-03-17T00:01:50.958Z,2.07
2023-03-17T00:04:20.797Z,1.80
2023-03-17T00:06:48.828Z,2.10
2023-03-17T00:09:18.496Z,1.87
2023-03-17T00:11:47.313Z,1.97
2023-03-17T00:14:15.254Z,1.80
2023-03-17T00:16:45.597Z,1.97
2023-03-17T00:19:17.145Z,1.77
2023-03-17T00:21:47.906Z,2.10
2023-03-17T00:24:15.955Z,1.93
2023-03-17T00:26:45.238Z,2.07
2023-03-17T00:29:13.510Z,1.80
2023-03-17T00:31:41.600Z,1.63
2023-03-17T00:34:13.490Z,2.03
2023-03-17T00:36:41.646Z,2.33
2023-03-17T00:41:44.646Z,1.90
2023-03-17T00:44:12.776Z,2.03
2023-03-17T00:46:41.582Z,1.73
2023-03-17T00:51:45.810Z,2.10
2023-03-17T00:54:15.604Z,2.30
2023-03-17T00:56:44.993Z,1.70
2023-03-17T00:59:21.511Z,1.93
2023-03-17T01:01:49.799Z,2.03
2023-03-17T01:04:18.033Z,1.60
2023-03-17T01:06:46.193Z,2.20
2023-03-17T01:09:18.468Z,2.10
2023-03-17T01:11:47.023Z,1.77
2023-03-17T01:14:15.224Z,1.70
2023-03-17T01:16:44.633Z,1.87
2023-03-17T01:19:13.604Z,2.00
2023-03-17T01:21:42.882Z,2.00
2023-03-17T01:24:10.725Z,1.93
2023-03-17T01:26:40.764Z,2.10
2023-03-17T01:29:08.796Z,2.10
2023-03-17T01:31:37.823Z,1.80
2023-03-17T01:34:06.158Z,1.90
2023-03-17T01:36:34.192Z,2.03
2023-03-17T01:39:02.075Z,1.70
2023-03-17T01:41:33.478Z,2.10
2023-03-17T01:44:02.660Z,2.13
2023-03-17T01:46:32.563Z,1.70
2023-03-17T01:49:21.001Z,1.80
2023-03-17T01:51:57.498Z,1.80
2023-03-17T01:54:29.901Z,1.70
2023-03-17T01:57:02.010Z,1.80
2023-03-17T01:59:35.952Z,1.90
2023-03-17T02:02:07.431Z,1.60
2023-03-17T02:04:36.104Z,1.60
2023-03-17T02:07:05.067Z,1.87
2023-03-17T02:09:34.554Z,1.93
2023-03-17T02:12:03.755Z,1.93
2023-03-17T02:14:32.963Z,1.87
2023-03-17T02:17:00.925Z,1.80
2023-03-17T02:19:29.546Z,1.97
2023-03-17T02:22:00.429Z,1.90
2023-03-17T02:24:34.175Z,1.70
2023-03-17T02:27:07.200Z,1.80
2023-03-17T02:29:37.966Z,1.80
2023-03-17T02:32:06.773Z,1.80
2023-03-17T02:34:35.060Z,2.07
2023-03-17T02:37:04.336Z,1.73
2023-03-17T02:39:32.289Z,1.57
2023-03-17T02:42:01.194Z,1.80
2023-03-17T02:44:29.201Z,1.43
2023-03-17T02:46:57.472Z,1.70
2023-03-17T02:49:27.174Z,2.20
2023-03-17T02:51:55.246Z,2.13
2023-03-17T02:54:24.491Z,1.80
2023-03-17T02:56:52.688Z,1.93
2023-03-17T02:59:20.753Z,1.83
2023-03-17T03:01:50.543Z,1.70
2023-03-17T03:04:21.186Z,1.73
2023-03-17T03:06:49.403Z,1.40
2023-03-17T03:09:18.076Z,1.63
2023-03-17T03:11:47.924Z,1.90
2023-03-17T03:14:15.899Z,1.37
2023-03-17T03:16:44.411Z,1.87
2023-03-17T03:19:12.601Z,1.37
2023-03-17T03:21:40.922Z,2.10
2023-03-17T03:24:09.554Z,1.77
2023-03-17T03:26:38.052Z,1.73
2023-03-17T03:29:07.493Z,1.63
2023-03-17T03:31:35.400Z,1.60
2023-03-17T03:34:03.291Z,1.63
2023-03-17T03:36:32.352Z,1.80
2023-03-17T03:39:00.900Z,1.60
2023-03-17T03:41:28.725Z,1.40
2023-03-17T03:43:56.817Z,1.60
2023-03-17T03:46:26.592Z,1.57
2023-03-17T03:48:57.915Z,1.40
2023-03-17T03:51:25.826Z,1.70
2023-03-17T03:53:53.707Z,1.60
2023-03-17T03:56:21.610Z,1.67
2023-03-17T03:58:49.589Z,1.73
2023-03-17T04:01:17.621Z,1.37
2023-03-17T04:03:47.377Z,1.90
2023-03-17T04:06:16.160Z,1.60
2023-03-17T04:08:44.974Z,1.80
2023-03-17T04:11:12.806Z,1.93
2023-03-17T04:13:40.667Z,1.50
2023-03-17T04:16:09.053Z,1.60
2023-03-17T04:18:37.030Z,1.60
2023-03-17T04:21:07.079Z,1.70
2023-03-17T04:23:35.355Z,1.60
2023-03-17T04:26:04.059Z,1.93
2023-03-17T04:28:32.540Z,1.73
2023-03-17T04:31:00.542Z,1.63
2023-03-17T04:33:28.657Z,1.50
2023-03-17T04:35:56.897Z,1.67
2023-03-17T04:38:26.200Z,1.70
2023-03-17T04:40:54.278Z,1.47
2023-03-17T04:43:22.114Z,1.60
2023-03-17T04:45:50.021Z,1.87
2023-03-17T04:48:17.850Z,1.63
2023-03-17T04:50:47.802Z,1.77
2023-03-17T04:53:15.829Z,1.70
2023-03-17T04:55:46.434Z,1.63
2023-03-17T04:58:29.469Z,1.80
2023-03-17T05:00:58.662Z,1.70
2023-03-17T05:03:28.527Z,1.67
2023-03-17T05:05:57.316Z,1.70
2023-03-17T05:08:25.696Z,1.70
2023-03-17T05:10:54.884Z,1.60
2023-03-17T05:13:23.285Z,1.77
2023-03-17T05:15:53.062Z,2.20
2023-03-17T05:18:22.705Z,1.73
2023-03-17T05:20:50.601Z,1.63
2023-03-17T05:23:18.669Z,1.70
2023-03-17T05:25:46.911Z,1.77
2023-03-17T05:28:16.758Z,1.67
2023-03-17T05:30:45.957Z,1.57
2023-03-17T05:33:14.550Z,1.63
2023-03-17T05:35:43.040Z,1.40
2023-03-17T05:38:12.739Z,1.73
2023-03-17T05:40:41.042Z,1.80
2023-03-17T05:43:08.933Z,1.80
2023-03-17T05:45:39.097Z,1.60
2023-03-17T05:48:07.449Z,2.17
2023-03-17T05:50:35.336Z,1.60
2023-03-17T05:53:03.352Z,1.80
2023-03-17T05:55:34.158Z,1.70
2023-03-17T05:58:04.373Z,1.70
2023-03-17T06:00:32.699Z,2.00
2023-03-17T06:03:03.875Z,1.90
2023-03-17T06:05:32.415Z,1.60
2023-03-17T06:08:00.764Z,1.60
2023-03-17T06:10:29.369Z,1.90
2023-03-17T06:12:58.825Z,1.70
2023-03-17T06:15:26.953Z,1.37
2023-03-17T06:17:55.240Z,1.80
2023-03-17T06:20:24.427Z,1.93
2023-03-17T06:23:03.790Z,1.93
2023-03-17T06:25:34.115Z,1.63
2023-03-17T06:28:03.545Z,2.13
2023-03-17T06:30:32.761Z,2.07
2023-03-17T06:33:01.232Z,2.03
2023-03-17T06:35:31.628Z,1.70
2023-03-17T06:38:00.702Z,1.60
2023-03-17T06:40:28.984Z,1.80
2023-03-17T06:42:57.149Z,2.00
2023-03-17T06:45:25.480Z,1.70
2023-03-17T06:47:53.549Z,1.97
2023-03-17T06:50:21.524Z,1.90
2023-03-17T06:52:50.920Z,2.37
2023-03-17T06:55:21.226Z,1.77
2023-03-17T06:57:52.309Z,2.17
2023-03-17T07:00:22.466Z,2.30
2023-03-17T07:02:51.585Z,2.37
2023-03-17T07:05:19.487Z,2.73
2023-03-17T07:07:47.733Z,2.60
2023-03-17T07:10:17.246Z,2.40
2023-03-17T07:12:46.025Z,1.97
2023-03-17T07:15:14.253Z,2.30
2023-03-17T07:17:42.838Z,2.30
2023-03-17T07:20:11.847Z,2.00
2023-03-17T07:22:40.587Z,2.17
2023-03-17T07:25:09.640Z,2.13
2023-03-17T07:27:39.411Z,2.43
2023-03-17T07:30:08.611Z,3.13
2023-03-17T07:32:36.484Z,2.33
2023-03-17T07:35:05.021Z,2.67
2023-03-17T07:37:33.087Z,2.50
2023-03-17T07:40:01.098Z,2.77
2023-03-17T07:42:30.055Z,2.90
2023-03-17T07:44:59.325Z,2.30
2023-03-17T07:47:27.115Z,2.40
2023-03-17T07:49:54.957Z,2.30
2023-03-17T07:52:22.841Z,2.70
2023-03-17T07:54:52.046Z,2.33
2023-03-17T07:57:19.964Z,2.00
2023-03-17T07:59:47.830Z,2.70
2023-03-17T08:02:18.255Z,2.53
2023-03-17T08:04:47.067Z,2.87
2023-03-17T08:07:15.676Z,2.40
2023-03-17T08:09:43.881Z,2.97
2023-03-17T08:12:12.428Z,2.80
2023-03-17T08:14:41.320Z,2.70
2023-03-17T08:17:09.318Z,2.50
2023-03-17T08:19:39.511Z,2.43
2023-03-17T08:22:07.832Z,2.60
2023-03-17T08:24:36.946Z,2.63
2023-03-17T08:27:04.996Z,2.30
2023-03-17T08:29:33.018Z,2.40
2023-03-17T08:32:01.324Z,2.57
2023-03-17T08:34:29.741Z,2.40
2023-03-17T08:36:59.070Z,2.33
2023-03-17T08:39:26.945Z,2.63
2023-03-17T08:41:54.983Z,2.57
2023-03-17T08:44:23.070Z,2.47
2023-03-17T08:46:52.217Z,2.35
2023-03-17T08:49:20.362Z,2.40
2023-03-17T08:51:48.965Z,2.40
2023-03-17T08:54:18.641Z,2.40
2023-03-17T08:56:46.718Z,2.58
2023-03-17T08:59:16.863Z,2.67
2023-03-17T09:01:45.796Z,3.28
2023-03-17T09:04:15.371Z,2.75
2023-03-17T09:07:01.303Z,2.38
2023-03-17T09:09:32.087Z,2.22
2023-03-17T09:12:00.173Z,2.42
2023-03-17T09:14:28.450Z,2.35
2023-03-17T09:16:56.940Z,2.50
2023-03-17T09:19:25.204Z,2.85
2023-03-17T09:21:53.732Z,2.45
2023-03-17T09:24:21.723Z,2.60
2023-03-17T09:26:51.018Z,2.47
2023-03-17T09:29:19.244Z,2.70
2023-03-17T09:31:47.488Z,2.65
2023-03-17T09:34:15.373Z,2.95
2023-03-17T09:36:43.750Z,2.53
2023-03-17T09:39:12.194Z,3.25
2023-03-17T09:41:57.008Z,3.38
2023-03-17T09:44:45.035Z,3.03
2023-03-17T09:47:25.869Z,2.78
2023-03-17T09:49:58.490Z,4.40
2023-03-17T09:52:30.689Z,3.20
2023-03-17T09:54:58.841Z,2.97
2023-03-17T09:57:33.356Z,2.75
2023-03-17T10:00:06.629Z,2.90
2023-03-17T10:02:37.462Z,2.95
2023-03-17T10:05:18.388Z,3.03
2023-03-17T10:07:52.734Z,3.03
2023-03-17T10:10:30.213Z,2.80
2023-03-17T10:13:10.368Z,3.20
2023-03-17T10:15:46.585Z,3.10
2023-03-17T10:18:16.655Z,3.40
2023-03-17T10:20:51.611Z,3.55
2023-03-17T10:23:22.851Z,2.80
2023-03-17T10:25:50.786Z,3.25
2023-03-17T10:28:29.353Z,2.95
2023-03-17T10:31:03.009Z,3.20
2023-03-17T10:33:32.653Z,2.67
2023-03-17T10:36:09.383Z,2.67
2023-03-17T10:38:37.608Z,3.08
2023-03-17T10:41:09.799Z,3.05
2023-03-17T10:43:45.678Z,2.92
2023-03-17T10:46:22.114Z,3.25
2023-03-17T10:48:54.840Z,2.97
2023-03-17T10:51:27.376Z,3.05
2023-03-17T10:53:55.775Z,3.35
2023-03-17T10:56:27.244Z,2.60
2023-03-17T10:58:56.939Z,3.55
2023-03-17T11:01:30.815Z,2.80
2023-03-17T11:04:02.461Z,3.10
2023-03-17T11:06:36.393Z,2.88
2023-03-17T11:09:13.249Z,3.22
2023-03-17T11:11:46.893Z,2.90
2023-03-17T11:14:18.563Z,2.88
2023-03-17T11:16:54.559Z,3.00
2023-03-17T11:19:30.971Z,2.90
2023-03-17T11:22:06.527Z,3.13
2023-03-17T11:24:41.520Z,3.28
2023-03-17T11:27:17.919Z,3.17
2023-03-17T11:30:03.446Z,3.05
2023-03-17T11:32:36.812Z,3.13
2023-03-17T11:35:18.322Z,3.42
2023-03-17T11:38:06.478Z,3.42
2023-03-17T11:40:38.993Z,3.33
2023-03-17T11:43:22.796Z,3.47
2023-03-17T11:45:57.269Z,3.55
2023-03-17T11:48:38.580Z,3.55
2023-03-17T11:51:15.340Z,2.80
2023-03-17T11:53:59.026Z,3.42
2023-03-17T11:56:38.631Z,3.30
2023-03-17T11:59:12.746Z,2.70
2023-03-17T12:01:56.498Z,3.20
2023-03-17T12:04:34.176Z,3.15
2023-03-17T12:07:09.047Z,2.80
2023-03-17T12:09:42.933Z,3.38
2023-03-17T12:12:15.828Z,3.03
2023-03-17T12:14:48.645Z,3.47
2023-03-17T12:17:25.114Z,3.80
2023-03-17T12:20:06.743Z,3.80
2023-03-17T12:22:40.751Z,3.85
2023-03-17T12:25:18.013Z,3.47
2023-03-17T12:27:53.750Z,3.25
2023-03-17T12:30:33.036Z,3.55
2023-03-17T12:33:11.832Z,2.97
2023-03-17T12:35:40.848Z,3.33
2023-03-17T12:38:13.639Z,3.65
2023-03-17T12:40:59.708Z,3.20
2023-03-17T12:43:40.040Z,3.47
2023-03-17T12:46:28.819Z,3.42
2023-03-17T12:49:18.811Z,3.30
2023-03-17T12:52:06.322Z,3.65
2023-03-17T12:54:37.109Z,3.40
2023-03-17T12:57:11.527Z,3.45
2023-03-17T12:59:44.998Z,3.95
2023-03-17T13:02:24.637Z,3.70
2023-03-17T13:04:58.026Z,3.60
2023-03-17T13:07:28.436Z,3.78
2023-03-17T13:10:19.859Z,3.75
2023-03-17T13:13:23.106Z,3.78
2023-03-17T13:15:58.157Z,4.07
2023-03-17T13:18:49.883Z,4.80
2023-03-17T13:21:23.572Z,3.70
2023-03-17T13:23:57.748Z,3.92
2023-03-17T13:26:55.257Z,4.40
2023-03-17T13:29:43.836Z,4.30
2023-03-17T13:32:43.239Z,3.55
2023-03-17T13:35:28.524Z,4.18
2023-03-17T13:38:40.997Z,3.55
2023-03-17T13:41:37.727Z,4.00
2023-03-17T13:44:29.018Z,4.10
2023-03-17T13:47:10.211Z,3.78
2023-03-17T13:49:38.634Z,4.35
2023-03-17T13:52:14.482Z,3.88
2023-03-17T13:54:49.641Z,3.95
2023-03-17T13:57:26.861Z,4.30
2023-03-17T13:59:58.601Z,3.60
2023-03-17T14:02:31.695Z,4.10
2023-03-17T14:05:02.005Z,3.67
2023-03-17T14:07:33.574Z,3.92
2023-03-17T14:10:05.400Z,4.00
2023-03-17T14:12:40.851Z,4.13
2023-03-17T14:15:17.410Z,3.30
2023-03-17T14:17:50.855Z,3.78
2023-03-17T18:00:46.153Z,8.13
2023-03-17T18:03:14.170Z,8.88
2023-03-17T18:05:42.069Z,7.30
2023-03-17T18:08:15.529Z,8.38
2023-03-17T18:10:43.986Z,7.95
2023-03-17T18:13:12.453Z,8.07
2023-03-17T18:15:40.422Z,7.88
2023-03-17T18:18:10.187Z,8.18
2023-03-17T18:20:39.158Z,11.27
2023-03-17T18:23:07.830Z,10.43
2023-03-17T18:25:37.274Z,9.00
2023-03-17T18:28:06.421Z,9.25
2023-03-17T18:30:35.640Z,7.45
2023-03-17T18:33:07.455Z,8.32
2023-03-17T18:35:37.231Z,7.15
2023-03-17T18:38:05.235Z,7.78
2023-03-17T18:40:33.670Z,7.28
2023-03-17T18:43:01.790Z,7.43
2023-03-17T18:45:29.626Z,6.63
2023-03-17T18:47:57.482Z,7.78
2023-03-17T18:50:26.436Z,7.38
2023-03-17T18:52:55.888Z,6.60
2023-03-17T18:55:23.819Z,6.85
2023-03-17T18:57:51.822Z,6.95
2023-03-17T19:00:20.293Z,6.93
2023-03-17T19:02:48.573Z,6.65
2023-03-17T19:05:16.573Z,6.75
2023-03-17T19:07:45.873Z,6.80
2023-03-17T19:10:15.717Z,7.25
2023-03-17T19:12:44.521Z,6.55
2023-03-17T19:15:13.777Z,6.68
2023-03-17T19:17:43.650Z,6.35
2023-03-17T19:20:13.483Z,6.10
2023-03-17T19:22:41.896Z,5.93
2023-03-17T19:25:10.645Z,5.40
2023-03-17T19:27:40.272Z,5.18
2023-03-17T19:30:09.349Z,4.50
2023-03-17T19:32:37.273Z,5.47
2023-03-17T19:35:07.544Z,4.57
2023-03-17T19:37:35.996Z,3.78
2023-03-17T19:40:04.673Z,3.97
2023-03-17T19:42:32.595Z,4.07
2023-03-17T19:45:01.861Z,3.17
2023-03-17T19:47:29.799Z,3.42
2023-03-17T19:49:57.788Z,3.20
2023-03-17T19:52:25.697Z,3.58
2023-03-17T19:54:53.555Z,3.10
2023-03-17T19:57:22.057Z,3.50
2023-03-17T19:59:50.246Z,3.42
2023-03-17T20:02:20.556Z,3.50
2023-03-17T20:04:49.541Z,3.30
2023-03-17T20:07:18.259Z,3.88
2023-03-17T20:09:47.900Z,3.33
2023-03-17T20:12:16.223Z,3.65
2023-03-17T20:14:45.016Z,3.88
2023-03-17T20:17:13.753Z,4.07
2023-03-17T20:19:43.690Z,3.85
2023-03-17T20:22:11.870Z,4.05
2023-03-17T20:24:40.173Z,3.90
2023-03-17T20:27:08.365Z,3.65
2023-03-17T20:29:36.400Z,3.78
2023-03-17T20:32:04.647Z,4.43
2023-03-17T20:34:34.541Z,5.45
2023-03-17T20:37:04.241Z,4.47
2023-03-17T20:39:32.527Z,4.85
2023-03-17T20:42:01.502Z,4.80
2023-03-17T20:44:29.434Z,4.50
2023-03-17T20:46:57.841Z,6.65
2023-03-17T20:49:25.911Z,6.35
2023-03-17T20:51:53.726Z,5.80
2023-03-17T20:54:23.192Z,5.25
2023-03-17T20:56:53.568Z,5.97
2023-03-17T20:59:21.560Z,5.45
2023-03-17T21:01:49.875Z,5.70
2023-03-17T21:04:20.596Z,5.43
2023-03-17T21:06:49.797Z,4.85
2023-03-17T21:09:17.608Z,4.60
2023-03-17T21:11:51.811Z,5.13
2023-03-17T21:14:19.697Z,5.32
2023-03-17T21:16:47.877Z,4.47
2023-03-17T21:19:17.192Z,4.57
2023-03-17T21:21:45.644Z,6.53
2023-03-17T21:24:24.412Z,5.53
2023-03-17T21:26:53.733Z,5.60
2023-03-17T21:29:22.700Z,5.13
2023-03-17T21:31:50.998Z,4.65
2023-03-17T21:34:18.979Z,5.45
2023-03-17T21:36:47.043Z,4.95
2023-03-17T21:39:15.079Z,4.80
2023-03-17T21:41:43.630Z,4.88
2023-03-17T21:44:15.808Z,5.10
2023-03-17T21:46:45.621Z,4.60
2023-03-17T21:49:16.072Z,4.95
2023-03-17T21:51:45.219Z,5.18
2023-03-17T21:54:14.355Z,4.90
2023-03-17T21:56:43.118Z,7.28
2023-03-17T21:59:13.981Z,5.90
2023-03-17T22:01:43.795Z,5.25
2023-03-17T22:04:13.071Z,5.10
2023-03-17T22:06:41.797Z,5.00
2023-03-17T22:09:10.831Z,5.03
2023-03-17T22:11:39.366Z,4.78
2023-03-17T22:14:07.912Z,4.55
2023-03-17T22:16:37.132Z,5.13
2023-03-17T22:19:04.990Z,4.97
2023-03-17T22:21:32.932Z,4.85
2023-03-17T22:24:00.854Z,5.03
2023-03-17T22:26:29.132Z,5.18
2023-03-17T22:28:57.106Z,5.05
2023-03-17T22:31:27.089Z,4.97
2023-03-17T22:33:58.683Z,5.82
2023-03-17T22:36:27.387Z,5.13
2023-03-17T22:38:56.082Z,5.53
2023-03-17T22:41:25.870Z,5.55
2023-03-17T22:43:53.741Z,5.70
2023-03-17T22:46:22.056Z,5.53
2023-03-17T22:48:50.781Z,6.20
2023-03-17T22:51:21.946Z,5.78
2023-03-17T22:53:50.859Z,6.25
2023-03-17T22:56:19.012Z,5.63
2023-03-17T22:58:47.887Z,5.60
2023-03-17T23:01:17.472Z,5.90
2023-03-17T23:03:46.261Z,6.45
2023-03-17T23:06:15.546Z,7.25
2023-03-17T23:08:45.889Z,7.30
2023-03-17T23:11:19.213Z,6.20
2023-03-17T23:13:47.716Z,6.88
2023-03-17T23:16:16.046Z,7.57
2023-03-17T23:18:46.775Z,7.10
2023-03-17T23:21:21.808Z,7.20
2023-03-17T23:23:51.357Z,7.22
2023-03-17T23:26:19.252Z,7.53
2023-03-17T23:28:47.539Z,7.93
2023-03-17T23:31:15.809Z,7.57
2023-03-17T23:33:44.866Z,6.85
2023-03-17T23:36:14.159Z,6.03
2023-03-17T23:38:42.861Z,6.22
2023-03-17T23:41:12.818Z,6.63
2023-03-17T23:43:41.623Z,6.70
2023-03-17T23:46:09.762Z,6.28
2023-03-17T23:48:41.534Z,6.85
2023-03-17T23:51:12.090Z,6.93
2023-03-17T23:53:41.917Z,5.93
2023-03-17T23:56:13.037Z,5.65
2023-03-17T23:58:42.558Z,6.63
